sensor_id;sensor_type;location;lat;lon;timestamp;temperature;humidity
610;DHT22;292;48.800;9.216;2024-02-21T00:06:04;10.00;68.00
610;DHT22;292;48.800;9.216;2024-02-21T02:16:56;10.00;68.60
610;DHT22;292;48.800;9.216;2024-02-21T03:06:55;10.10;67.50
610;DHT22;292;48.800;9.216;2024-02-21T03:16:33;10.10;67.70
610;DHT22;292;48.800;9.216;2024-02-21T03:26:28;10.00;67.90
610;DHT22;292;48.800;9.216;2024-02-21T04:37:30;9.70;68.50
610;DHT22;292;48.800;9.216;2024-02-21T06:26:49;9.20;68.90
610;DHT22;292;48.800;9.216;2024-02-21T06:29:16;9.20;68.70
610;DHT22;292;48.800;9.216;2024-02-21T06:31:43;9.30;68.60
610;DHT22;292;48.800;9.216;2024-02-21T06:34:10;9.30;68.70
610;DHT22;292;48.800;9.216;2024-02-21T06:36:37;9.30;68.60
610;DHT22;292;48.800;9.216;2024-02-21T06:39:04;9.30;68.50
610;DHT22;292;48.800;9.216;2024-02-21T06:41:40;9.30;68.30
610;DHT22;292;48.800;9.216;2024-02-21T06:44:10;9.40;67.70
610;DHT22;292;48.800;9.216;2024-02-21T06:46:40;9.40;67.50
610;DHT22;292;48.800;9.216;2024-02-21T06:49:07;9.40;67.30
610;DHT22;292;48.800;9.216;2024-02-21T06:51:34;9.40;67.20
610;DHT22;292;48.800;9.216;2024-02-21T06:54:02;9.50;67.20
610;DHT22;292;48.800;9.216;2024-02-21T06:56:31;9.50;66.90
610;DHT22;292;48.800;9.216;2024-02-21T06:58:59;9.50;66.40
610;DHT22;292;48.800;9.216;2024-02-21T07:01:38;9.50;66.20
610;DHT22;292;48.800;9.216;2024-02-21T07:04:05;9.50;66.00
610;DHT22;292;48.800;9.216;2024-02-21T07:06:33;9.50;65.70
610;DHT22;292;48.800;9.216;2024-02-21T07:09:00;9.50;65.70
610;DHT22;292;48.800;9.216;2024-02-21T07:11:28;9.60;65.40
610;DHT22;292;48.800;9.216;2024-02-21T07:13:55;9.60;65.70
610;DHT22;292;48.800;9.216;2024-02-21T07:16:22;9.60;65.70
610;DHT22;292;48.800;9.216;2024-02-21T07:18:51;9.70;65.60
610;DHT22;292;48.800;9.216;2024-02-21T07:21:18;9.70;65.40
610;DHT22;292;48.800;9.216;2024-02-21T07:23:44;9.70;65.10
610;DHT22;292;48.800;9.216;2024-02-21T07:26:11;9.80;64.70
610;DHT22;292;48.800;9.216;2024-02-21T07:28:38;9.80;64.40
610;DHT22;292;48.800;9.216;2024-02-21T07:32:14;9.80;64.30
610;DHT22;292;48.800;9.216;2024-02-21T07:34:11;9.80;64.10
610;DHT22;292;48.800;9.216;2024-02-21T07:36:40;9.80;64.30
610;DHT22;292;48.800;9.216;2024-02-21T07:39:10;9.90;64.10
610;DHT22;292;48.800;9.216;2024-02-21T07:41:39;9.90;64.10
610;DHT22;292;48.800;9.216;2024-02-21T07:44:07;9.90;64.00
610;DHT22;292;48.800;9.216;2024-02-21T07:46:34;10.00;64.00
610;DHT22;292;48.800;9.216;2024-02-21T07:49:01;10.00;64.10
610;DHT22;292;48.800;9.216;2024-02-21T07:51:32;10.10;64.10
610;DHT22;292;48.800;9.216;2024-02-21T07:54:01;10.10;63.60
610;DHT22;292;48.800;9.216;2024-02-21T07:56:29;10.20;63.10
610;DHT22;292;48.800;9.216;2024-02-21T07:58:56;10.20;63.10
610;DHT22;292;48.800;9.216;2024-02-21T08:01:23;10.30;63.30
610;DHT22;292;48.800;9.216;2024-02-21T08:03:52;10.40;63.40
610;DHT22;292;48.800;9.216;2024-02-21T08:09:10;10.50;62.70
610;DHT22;292;48.800;9.216;2024-02-21T08:11:38;10.60;62.40
610;DHT22;292;48.800;9.216;2024-02-21T08:14:08;10.60;62.10
610;DHT22;292;48.800;9.216;2024-02-21T08:16:35;10.70;62.00
610;DHT22;292;48.800;9.216;2024-02-21T08:19:02;10.70;61.80
610;DHT22;292;48.800;9.216;2024-02-21T08:21:31;10.80;61.70
610;DHT22;292;48.800;9.216;2024-02-21T08:23:59;10.90;61.10
610;DHT22;292;48.800;9.216;2024-02-21T08:26:29;10.90;60.80
610;DHT22;292;48.800;9.216;2024-02-21T08:28:56;11.00;60.50
610;DHT22;292;48.800;9.216;2024-02-21T08:31:25;11.00;60.20
610;DHT22;292;48.800;9.216;2024-02-21T08:33:58;11.10;60.00
610;DHT22;292;48.800;9.216;2024-02-21T08:36:32;11.10;59.60
610;DHT22;292;48.800;9.216;2024-02-21T08:38:59;11.10;59.40
610;DHT22;292;48.800;9.216;2024-02-21T08:41:27;11.00;59.40
610;DHT22;292;48.800;9.216;2024-02-21T08:43:54;11.10;59.40
610;DHT22;292;48.800;9.216;2024-02-21T08:46:21;11.10;59.40
610;DHT22;292;48.800;9.216;2024-02-21T08:48:49;11.10;59.20
610;DHT22;292;48.800;9.216;2024-02-21T08:51:16;11.10;59.30
610;DHT22;292;48.800;9.216;2024-02-21T08:53:46;11.10;59.30
610;DHT22;292;48.800;9.216;2024-02-21T08:56:13;11.10;59.20
610;DHT22;292;48.800;9.216;2024-02-21T08:58:41;11.20;59.20
610;DHT22;292;48.800;9.216;2024-02-21T09:01:10;11.20;59.00
610;DHT22;292;48.800;9.216;2024-02-21T09:03:37;11.20;59.00
610;DHT22;292;48.800;9.216;2024-02-21T09:06:07;11.20;58.90
610;DHT22;292;48.800;9.216;2024-02-21T09:08:35;11.20;58.90
610;DHT22;292;48.800;9.216;2024-02-21T09:11:05;11.30;58.60
610;DHT22;292;48.800;9.216;2024-02-21T09:13:32;11.40;58.60
610;DHT22;292;48.800;9.216;2024-02-21T09:15:59;11.40;58.50
610;DHT22;292;48.800;9.216;2024-02-21T09:18:28;11.40;58.20
610;DHT22;292;48.800;9.216;2024-02-21T09:20:55;11.50;58.10
610;DHT22;292;48.800;9.216;2024-02-21T09:23:25;11.50;58.10
610;DHT22;292;48.800;9.216;2024-02-21T09:25:52;11.60;58.00
610;DHT22;292;48.800;9.216;2024-02-21T09:28:22;11.60;57.60
610;DHT22;292;48.800;9.216;2024-02-21T09:30:49;11.60;57.30
610;DHT22;292;48.800;9.216;2024-02-21T09:33:16;11.70;57.30
610;DHT22;292;48.800;9.216;2024-02-21T09:35:44;11.70;57.00
610;DHT22;292;48.800;9.216;2024-02-21T09:38:11;11.70;57.00
610;DHT22;292;48.800;9.216;2024-02-21T09:40:41;11.80;56.80
610;DHT22;292;48.800;9.216;2024-02-21T09:43:08;11.80;56.60
610;DHT22;292;48.800;9.216;2024-02-21T09:46:00;11.90;56.50
610;DHT22;292;48.800;9.216;2024-02-21T09:48:43;12.10;56.00
610;DHT22;292;48.800;9.216;2024-02-21T09:51:14;12.20;55.60
610;DHT22;292;48.800;9.216;2024-02-21T09:53:44;12.40;55.40
610;DHT22;292;48.800;9.216;2024-02-21T09:56:14;12.60;54.90
610;DHT22;292;48.800;9.216;2024-02-21T09:58:48;12.60;54.20
610;DHT22;292;48.800;9.216;2024-02-21T10:01:18;12.70;54.00
610;DHT22;292;48.800;9.216;2024-02-21T10:03:46;12.90;53.70
610;DHT22;292;48.800;9.216;2024-02-21T10:06:13;13.00;53.20
610;DHT22;292;48.800;9.216;2024-02-21T10:08:40;13.10;52.80
610;DHT22;292;48.800;9.216;2024-02-21T10:11:24;13.20;52.20
610;DHT22;292;48.800;9.216;2024-02-21T10:14:03;13.20;52.00
610;DHT22;292;48.800;9.216;2024-02-21T10:16:33;13.30;52.10
610;DHT22;292;48.800;9.216;2024-02-21T10:19:02;13.30;51.70
610;DHT22;292;48.800;9.216;2024-02-21T10:21:31;13.30;51.40
610;DHT22;292;48.800;9.216;2024-02-21T10:23:58;13.40;51.40
610;DHT22;292;48.800;9.216;2024-02-21T10:26:25;13.50;51.30
610;DHT22;292;48.800;9.216;2024-02-21T10:28:52;13.50;50.80
610;DHT22;292;48.800;9.216;2024-02-21T10:31:24;13.60;50.40
610;DHT22;292;48.800;9.216;2024-02-21T10:33:57;13.60;50.50
610;DHT22;292;48.800;9.216;2024-02-21T10:36:34;13.70;50.50
610;DHT22;292;48.800;9.216;2024-02-21T10:39:01;13.80;50.10
610;DHT22;292;48.800;9.216;2024-02-21T10:41:28;13.80;49.70
610;DHT22;292;48.800;9.216;2024-02-21T10:44:01;13.90;49.00
610;DHT22;292;48.800;9.216;2024-02-21T10:46:32;13.90;49.00
610;DHT22;292;48.800;9.216;2024-02-21T10:49:09;13.90;49.00
610;DHT22;292;48.800;9.216;2024-02-21T10:51:40;14.00;48.80
610;DHT22;292;48.800;9.216;2024-02-21T10:54:18;14.00;48.80
610;DHT22;292;48.800;9.216;2024-02-21T10:56:50;14.10;48.40
610;DHT22;292;48.800;9.216;2024-02-21T10:59:18;14.10;48.10
610;DHT22;292;48.800;9.216;2024-02-21T11:01:46;14.10;48.00
610;DHT22;292;48.800;9.216;2024-02-21T11:04:16;14.10;47.80
610;DHT22;292;48.800;9.216;2024-02-21T11:06:43;14.20;47.40
610;DHT22;292;48.800;9.216;2024-02-21T11:09:11;14.20;47.00
610;DHT22;292;48.800;9.216;2024-02-21T11:11:40;14.10;47.30
610;DHT22;292;48.800;9.216;2024-02-21T11:14:10;14.10;47.20
610;DHT22;292;48.800;9.216;2024-02-21T11:16:38;14.10;46.90
610;DHT22;292;48.800;9.216;2024-02-21T11:19:09;14.10;47.00
610;DHT22;292;48.800;9.216;2024-02-21T11:21:38;14.10;47.00
610;DHT22;292;48.800;9.216;2024-02-21T11:24:07;14.10;47.20
610;DHT22;292;48.800;9.216;2024-02-21T11:26:37;14.10;47.00
610;DHT22;292;48.800;9.216;2024-02-21T11:29:04;14.20;47.00
610;DHT22;292;48.800;9.216;2024-02-21T11:31:44;14.20;46.90
610;DHT22;292;48.800;9.216;2024-02-21T11:34:12;14.20;47.00
610;DHT22;292;48.800;9.216;2024-02-21T11:36:50;14.20;46.80
610;DHT22;292;48.800;9.216;2024-02-21T11:39:21;14.30;46.40
610;DHT22;292;48.800;9.216;2024-02-21T11:42:01;14.30;46.10
610;DHT22;292;48.800;9.216;2024-02-21T11:44:29;14.40;46.00
610;DHT22;292;48.800;9.216;2024-02-21T11:46:56;14.40;46.10
610;DHT22;292;48.800;9.216;2024-02-21T11:49:25;14.40;45.80
610;DHT22;292;48.800;9.216;2024-02-21T11:51:59;14.50;46.00
610;DHT22;292;48.800;9.216;2024-02-21T11:54:29;14.50;46.00
610;DHT22;292;48.800;9.216;2024-02-21T11:56:56;14.60;45.70
610;DHT22;292;48.800;9.216;2024-02-21T11:59:23;14.70;45.30
610;DHT22;292;48.800;9.216;2024-02-21T12:01:50;14.70;45.20
610;DHT22;292;48.800;9.216;2024-02-21T12:04:19;14.70;44.90
610;DHT22;292;48.800;9.216;2024-02-21T12:06:46;14.70;44.60
610;DHT22;292;48.800;9.216;2024-02-21T12:09:16;14.70;44.60
610;DHT22;292;48.800;9.216;2024-02-21T12:11:43;14.70;44.80
610;DHT22;292;48.800;9.216;2024-02-21T12:14:10;14.70;45.00
610;DHT22;292;48.800;9.216;2024-02-21T12:16:37;14.80;44.90
610;DHT22;292;48.800;9.216;2024-02-21T12:19:05;14.80;44.60
610;DHT22;292;48.800;9.216;2024-02-21T12:21:33;14.90;44.40
610;DHT22;292;48.800;9.216;2024-02-21T12:24:11;14.90;44.40
610;DHT22;292;48.800;9.216;2024-02-21T12:26:41;15.00;43.80
610;DHT22;292;48.800;9.216;2024-02-21T12:29:08;15.00;43.30
610;DHT22;292;48.800;9.216;2024-02-21T12:31:36;15.10;42.50
610;DHT22;292;48.800;9.216;2024-02-21T12:34:03;15.10;42.10
610;DHT22;292;48.800;9.216;2024-02-21T12:36:30;15.10;42.10
610;DHT22;292;48.800;9.216;2024-02-21T12:38:57;15.20;41.60
610;DHT22;292;48.800;9.216;2024-02-21T12:41:24;15.20;41.20
610;DHT22;292;48.800;9.216;2024-02-21T12:43:54;15.30;41.00
610;DHT22;292;48.800;9.216;2024-02-21T12:46:21;15.30;40.90
610;DHT22;292;48.800;9.216;2024-02-21T12:48:49;15.30;40.50
610;DHT22;292;48.800;9.216;2024-02-21T12:51:16;15.40;40.50
610;DHT22;292;48.800;9.216;2024-02-21T12:53:46;15.40;40.40
610;DHT22;292;48.800;9.216;2024-02-21T12:56:15;15.50;40.00
610;DHT22;292;48.800;9.216;2024-02-21T12:58:42;15.50;40.00
610;DHT22;292;48.800;9.216;2024-02-21T13:01:12;15.50;39.80
610;DHT22;292;48.800;9.216;2024-02-21T13:03:39;15.60;39.40
610;DHT22;292;48.800;9.216;2024-02-21T13:06:06;15.60;38.90
610;DHT22;292;48.800;9.216;2024-02-21T13:08:36;15.50;38.90
610;DHT22;292;48.800;9.216;2024-02-21T13:11:09;15.60;39.20
610;DHT22;292;48.800;9.216;2024-02-21T13:13:40;15.60;39.00
610;DHT22;292;48.800;9.216;2024-02-21T13:16:07;15.60;38.60
610;DHT22;292;48.800;9.216;2024-02-21T13:18:39;15.60;38.40
610;DHT22;292;48.800;9.216;2024-02-21T13:21:08;15.70;38.10
610;DHT22;292;48.800;9.216;2024-02-21T13:23:35;15.70;38.10
610;DHT22;292;48.800;9.216;2024-02-21T13:26:02;15.60;38.20
610;DHT22;292;48.800;9.216;2024-02-21T13:35:21;15.70;38.00
610;DHT22;292;48.800;9.216;2024-02-21T13:38:00;15.70;37.80
610;DHT22;292;48.800;9.216;2024-02-21T13:40:28;15.70;37.70
610;DHT22;292;48.800;9.216;2024-02-21T13:42:57;15.70;37.20
610;DHT22;292;48.800;9.216;2024-02-21T13:45:24;15.70;37.30
610;DHT22;292;48.800;9.216;2024-02-21T13:47:53;15.80;37.30
610;DHT22;292;48.800;9.216;2024-02-21T13:50:23;15.80;37.30
610;DHT22;292;48.800;9.216;2024-02-21T13:52:50;15.80;36.90
610;DHT22;292;48.800;9.216;2024-02-21T13:55:18;15.80;36.50
610;DHT22;292;48.800;9.216;2024-02-21T13:57:47;15.80;36.60
610;DHT22;292;48.800;9.216;2024-02-21T14:00:17;15.80;36.00
610;DHT22;292;48.800;9.216;2024-02-21T14:02:48;15.70;36.00
610;DHT22;292;48.800;9.216;2024-02-21T14:05:15;15.60;36.00
610;DHT22;292;48.800;9.216;2024-02-21T14:07:47;15.60;36.10
610;DHT22;292;48.800;9.216;2024-02-21T14:10:16;15.60;35.80
610;DHT22;292;48.800;9.216;2024-02-21T14:12:45;15.60;35.80
610;DHT22;292;48.800;9.216;2024-02-21T14:15:13;15.60;35.40
610;DHT22;292;48.800;9.216;2024-02-21T14:17:41;15.60;35.70
610;DHT22;292;48.800;9.216;2024-02-21T14:20:09;15.60;35.60
610;DHT22;292;48.800;9.216;2024-02-21T14:22:36;15.60;35.60
610;DHT22;292;48.800;9.216;2024-02-21T14:25:08;15.60;35.60
610;DHT22;292;48.800;9.216;2024-02-21T14:27:35;15.60;35.60
610;DHT22;292;48.800;9.216;2024-02-21T14:30:03;15.60;35.70
610;DHT22;292;48.800;9.216;2024-02-21T14:32:30;15.60;35.80
610;DHT22;292;48.800;9.216;2024-02-21T14:34:57;15.50;35.80
610;DHT22;292;48.800;9.216;2024-02-21T14:37:24;15.60;35.80
610;DHT22;292;48.800;9.216;2024-02-21T14:39:51;15.60;35.80
610;DHT22;292;48.800;9.216;2024-02-21T14:42:35;15.60;35.80
610;DHT22;292;48.800;9.216;2024-02-21T14:45:05;15.50;35.80
610;DHT22;292;48.800;9.216;2024-02-21T14:47:32;15.60;35.80
610;DHT22;292;48.800;9.216;2024-02-21T14:49:59;15.60;35.70
610;DHT22;292;48.800;9.216;2024-02-21T14:52:34;15.60;35.60
610;DHT22;292;48.800;9.216;2024-02-21T14:55:02;15.60;35.70
610;DHT22;292;48.800;9.216;2024-02-21T14:57:30;15.60;35.60
610;DHT22;292;48.800;9.216;2024-02-21T14:59:59;15.60;35.00
610;DHT22;292;48.800;9.216;2024-02-21T15:02:28;15.60;34.90
610;DHT22;292;48.800;9.216;2024-02-21T15:04:55;15.60;34.60
610;DHT22;292;48.800;9.216;2024-02-21T15:07:25;15.60;34.50
610;DHT22;292;48.800;9.216;2024-02-21T15:09:53;15.60;34.40
610;DHT22;292;48.800;9.216;2024-02-21T15:12:22;15.60;34.60
610;DHT22;292;48.800;9.216;2024-02-21T15:14:50;15.60;34.60
610;DHT22;292;48.800;9.216;2024-02-21T15:17:19;15.60;34.60
610;DHT22;292;48.800;9.216;2024-02-21T15:19:46;15.60;34.50
610;DHT22;292;48.800;9.216;2024-02-21T15:22:13;15.60;34.40
610;DHT22;292;48.800;9.216;2024-02-21T15:24:43;15.60;34.50
610;DHT22;292;48.800;9.216;2024-02-21T15:27:12;15.60;34.50
610;DHT22;292;48.800;9.216;2024-02-21T15:29:41;15.60;34.40
610;DHT22;292;48.800;9.216;2024-02-21T15:32:08;15.60;34.40
610;DHT22;292;48.800;9.216;2024-02-21T15:34:38;15.60;34.80
610;DHT22;292;48.800;9.216;2024-02-21T15:37:07;15.60;35.00
610;DHT22;292;48.800;9.216;2024-02-21T15:39:36;15.60;35.30
610;DHT22;292;48.800;9.216;2024-02-21T15:42:03;15.60;35.30
610;DHT22;292;48.800;9.216;2024-02-21T15:44:30;15.60;35.80
610;DHT22;292;48.800;9.216;2024-02-21T15:47:41;15.60;36.10
610;DHT22;292;48.800;9.216;2024-02-21T15:50:12;15.60;36.50
610;DHT22;292;48.800;9.216;2024-02-21T15:52:59;15.60;37.00
610;DHT22;292;48.800;9.216;2024-02-21T15:55:28;15.60;37.60
610;DHT22;292;48.800;9.216;2024-02-21T15:57:55;15.60;38.00
610;DHT22;292;48.800;9.216;2024-02-21T16:00:22;15.60;38.40
610;DHT22;292;48.800;9.216;2024-02-21T16:02:52;15.60;38.50
610;DHT22;292;48.800;9.216;2024-02-21T16:05:28;15.50;39.00
610;DHT22;292;48.800;9.216;2024-02-21T16:07:57;15.50;39.30
610;DHT22;292;48.800;9.216;2024-02-21T16:10:25;15.50;39.30
610;DHT22;292;48.800;9.216;2024-02-21T16:12:54;15.50;39.40
610;DHT22;292;48.800;9.216;2024-02-21T16:55:00;15.10;43.80
610;DHT22;292;48.800;9.216;2024-02-21T17:53:41;14.50;48.50
610;DHT22;292;48.800;9.216;2024-02-21T18:34:19;14.30;50.40
610;DHT22;292;48.800;9.216;2024-02-21T18:44:16;14.30;50.60
610;DHT22;292;48.800;9.216;2024-02-21T18:54:02;14.30;50.10
610;DHT22;292;48.800;9.216;2024-02-21T20:53:34;14.50;42.40
610;DHT22;292;48.800;9.216;2024-02-21T20:56:02;14.50;42.40
610;DHT22;292;48.800;9.216;2024-02-21T21:43:40;14.60;42.90
610;DHT22;292;48.800;9.216;2024-02-21T21:46:13;14.60;42.90
610;DHT22;292;48.800;9.216;2024-02-21T21:48:41;14.60;42.90
610;DHT22;292;48.800;9.216;2024-02-21T21:51:08;14.70;43.00
610;DHT22;292;48.800;9.216;2024-02-21T21:53:35;14.70;43.00
610;DHT22;292;48.800;9.216;2024-02-21T21:56:03;14.80;42.90
610;DHT22;292;48.800;9.216;2024-02-21T21:58:31;14.80;42.90
610;DHT22;292;48.800;9.216;2024-02-21T22:00:59;14.80;42.50
610;DHT22;292;48.800;9.216;2024-02-21T22:03:26;14.90;42.50
610;DHT22;292;48.800;9.216;2024-02-21T22:05:54;14.90;42.50
610;DHT22;292;48.800;9.216;2024-02-21T22:08:21;15.00;42.50
610;DHT22;292;48.800;9.216;2024-02-21T22:10:49;15.00;42.10
610;DHT22;292;48.800;9.216;2024-02-21T22:13:20;15.00;42.00
610;DHT22;292;48.800;9.216;2024-02-21T22:16:01;15.00;42.10
610;DHT22;292;48.800;9.216;2024-02-21T22:25:29;15.00;42.50
610;DHT22;292;48.800;9.216;2024-02-21T22:59:06;15.10;42.60
610;DHT22;292;48.800;9.216;2024-02-21T23:01:36;15.10;42.60
610;DHT22;292;48.800;9.216;2024-02-21T23:04:15;15.10;42.60
610;DHT22;292;48.800;9.216;2024-02-21T23:13:29;15.10;42.40
610;DHT22;292;48.800;9.216;2024-02-21T23:16:13;15.10;42.20
610;DHT22;292;48.800;9.216;2024-02-21T23:18:40;15.10;42.20
610;DHT22;292;48.800;9.216;2024-02-21T23:21:10;15.10;42.20
610;DHT22;292;48.800;9.216;2024-02-21T23:23:38;15.10;42.10
610;DHT22;292;48.800;9.216;2024-02-21T23:26:15;15.10;42.10
610;DHT22;292;48.800;9.216;2024-02-21T23:38:21;15.20;41.80
610;DHT22;292;48.800;9.216;2024-02-21T23:40:49;15.20;42.00
610;DHT22;292;48.800;9.216;2024-02-21T23:43:16;15.20;41.70
610;DHT22;292;48.800;9.216;2024-02-21T23:45:43;15.10;41.70
610;DHT22;292;48.800;9.216;2024-02-21T23:48:15;15.10;41.70
610;DHT22;292;48.800;9.216;2024-02-21T23:51:04;15.20;41.00
610;DHT22;292;48.800;9.216;2024-02-21T23:57:04;15.20;40.90
